Time;durP1;ratioP1;P1;durP2;ratioP2;P2;SDS_P1;SDS_P2;PMS_P1;PMS_P2;Temp;Humidity;BMP_temperature;BMP_pressure;BME280_temperature;BME280_humidity;BME280_pressure;Samples;Min_cycle;Max_cycle;Signal;HPM_P1;HPM_P2
2023/10/13 00:01:25;;;;;;;22.87;11.20;;;;;;;;;;2612441;54;20418;-75
2023/10/13 00:03:54;;;;;;;16.43;11.30;;;;;;;;;;2612839;54;20423;-76
2023/10/13 00:06:20;;;;;;;12.80;10.90;;;;;;;;;;2612367;54;20394;-76
2023/10/13 00:08:46;;;;;;;15.27;11.40;;;;;;;;;;2612643;54;20436;-75
2023/10/13 00:11:13;;;;;;;15.83;10.90;;;;;;;;;;2612036;47;21051;-76
2023/10/13 00:13:44;;;;;;;13.53;11.27;;;;;;;;;;2612086;54;20406;-76
2023/10/13 00:16:16;;;;;;;15.77;11.30;;;;;;;;;;2612492;54;20420;-76
2023/10/13 00:18:43;;;;;;;18.67;11.80;;;;;;;;;;2612224;54;20422;-75
2023/10/13 00:21:13;;;;;;;18.13;11.53;;;;;;;;;;2612283;54;20502;-76
2023/10/13 00:23:55;;;;;;;15.50;10.90;;;;;;;;;;2612349;54;20458;-76
2023/10/13 00:26:28;;;;;;;15.10;10.57;;;;;;;;;;2612626;54;20962;-76
2023/10/13 00:31:36;;;;;;;12.97;9.93;;;;;;;;;;2612864;54;20499;-75
2023/10/13 00:34:10;;;;;;;16.00;10.87;;;;;;;;;;2613102;54;20434;-76
2023/10/13 00:36:36;;;;;;;13.50;10.10;;;;;;;;;;2613284;54;20965;-75
2023/10/13 00:39:07;;;;;;;20.20;10.80;;;;;;;;;;2613147;54;20400;-77
2023/10/13 00:41:50;;;;;;;17.90;10.50;;;;;;;;;;2613516;54;20462;-75
2023/10/13 00:44:17;;;;;;;18.80;10.37;;;;;;;;;;2612200;47;20427;-76
2023/10/13 00:46:45;;;;;;;15.67;9.70;;;;;;;;;;2613076;54;21400;-75
2023/10/13 00:49:15;;;;;;;19.23;11.67;;;;;;;;;;2612607;54;20467;-76
2023/10/13 00:51:47;;;;;;;12.03;10.03;;;;;;;;;;2613007;54;20566;-76
2023/10/13 00:54:13;;;;;;;15.63;9.87;;;;;;;;;;2612357;54;20973;-75
2023/10/13 00:56:49;;;;;;;14.57;10.13;;;;;;;;;;2612516;39;20832;-76
2023/10/13 00:59:16;;;;;;;14.43;9.57;;;;;;;;;;2611902;54;20427;-76
2023/10/13 01:01:43;;;;;;;26.63;11.63;;;;;;;;;;2612787;47;20412;-72
2023/10/13 01:04:12;;;;;;;12.70;10.37;;;;;;;;;;2613059;47;20423;-74
2023/10/13 01:06:39;;;;;;;12.73;10.27;;;;;;;;;;2612753;54;20416;-74
2023/10/13 01:09:18;;;;;;;14.97;9.60;;;;;;;;;;2613286;54;20408;-74
2023/10/13 01:11:46;;;;;;;13.73;9.87;;;;;;;;;;2613393;47;20430;-74
2023/10/13 01:14:17;;;;;;;13.40;9.73;;;;;;;;;;2612944;47;20547;-75
2023/10/13 01:16:44;;;;;;;13.53;9.57;;;;;;;;;;2613667;54;20438;-73
2023/10/13 01:19:14;;;;;;;14.13;10.50;;;;;;;;;;2613753;54;20402;-73
2023/10/13 01:21:47;;;;;;;12.17;9.90;;;;;;;;;;2613826;54;20427;-73
2023/10/13 01:24:17;;;;;;;13.43;9.67;;;;;;;;;;2613316;54;20544;-75
2023/10/13 01:26:44;;;;;;;13.33;10.67;;;;;;;;;;2613881;54;20412;-73
2023/10/13 01:29:14;;;;;;;16.43;10.60;;;;;;;;;;2614002;39;20784;-74
2023/10/13 01:31:47;;;;;;;14.93;9.20;;;;;;;;;;2613838;54;20415;-73
2023/10/13 01:34:21;;;;;;;17.57;10.80;;;;;;;;;;2613231;54;20438;-73
2023/10/13 01:36:54;;;;;;;12.00;9.00;;;;;;;;;;2613904;54;20419;-73
2023/10/13 01:39:21;;;;;;;11.47;9.93;;;;;;;;;;2613216;46;20447;-73
2023/10/13 01:41:55;;;;;;;14.77;10.30;;;;;;;;;;2612733;51;21032;-74
2023/10/13 01:44:21;;;;;;;11.73;9.77;;;;;;;;;;2614041;54;20408;-72
2023/10/13 01:46:47;;;;;;;13.93;9.80;;;;;;;;;;2613551;54;20448;-74
2023/10/13 01:49:18;;;;;;;11.63;9.97;;;;;;;;;;2612850;54;20436;-74
2023/10/13 01:51:47;;;;;;;14.00;10.03;;;;;;;;;;2612755;39;20533;-73
2023/10/13 01:54:15;;;;;;;12.57;10.87;;;;;;;;;;2613344;54;20407;-73
2023/10/13 01:56:45;;;;;;;14.43;9.90;;;;;;;;;;2613135;54;20448;-73
2023/10/13 01:59:15;;;;;;;15.03;10.83;;;;;;;;;;2613001;54;20431;-74
2023/10/13 02:01:41;;;;;;;16.57;10.73;;;;;;;;;;2613588;54;21033;-74
2023/10/13 02:04:10;;;;;;;14.10;10.00;;;;;;;;;;2613670;54;20403;-75
2023/10/13 02:06:37;;;;;;;16.97;10.23;;;;;;;;;;2613360;54;20498;-73
2023/10/13 02:09:16;;;;;;;14.00;10.83;;;;;;;;;;2613081;54;20416;-73
2023/10/13 02:11:45;;;;;;;12.57;9.53;;;;;;;;;;2613517;39;20900;-76
2023/10/13 02:14:16;;;;;;;15.90;10.30;;;;;;;;;;2615061;39;20827;-76
2023/10/13 02:16:42;;;;;;;16.87;11.27;;;;;;;;;;2614536;54;20431;-75
2023/10/13 02:19:08;;;;;;;13.13;10.83;;;;;;;;;;2614696;54;20990;-76
2023/10/13 02:21:45;;;;;;;17.37;11.57;;;;;;;;;;2614915;54;20467;-76
2023/10/13 02:24:18;;;;;;;17.60;10.10;;;;;;;;;;2613846;47;20423;-76
2023/10/13 02:26:47;;;;;;;13.70;10.20;;;;;;;;;;2614474;39;20807;-76
2023/10/13 02:29:13;;;;;;;13.83;10.90;;;;;;;;;;2614753;46;20456;-76
2023/10/13 02:31:54;;;;;;;16.90;10.53;;;;;;;;;;2614068;54;20475;-76
2023/10/13 02:34:24;;;;;;;20.93;12.40;;;;;;;;;;2614718;54;20404;-76
2023/10/13 02:36:50;;;;;;;15.50;11.00;;;;;;;;;;2613750;54;20547;-75
2023/10/13 02:39:17;;;;;;;16.40;12.13;;;;;;;;;;2614421;54;20467;-76
2023/10/13 02:41:48;;;;;;;20.33;12.00;;;;;;;;;;2615210;39;20779;-76
2023/10/13 02:44:26;;;;;;;16.20;12.00;;;;;;;;;;2614756;54;20430;-76
2023/10/13 02:46:55;;;;;;;14.00;11.13;;;;;;;;;;2613944;54;20439;-75
2023/10/13 02:49:22;;;;;;;15.43;10.73;;;;;;;;;;2613749;47;20554;-75
2023/10/13 02:51:48;;;;;;;14.47;11.40;;;;;;;;;;2615251;54;20416;-75
2023/10/13 02:54:20;;;;;;;16.10;11.13;;;;;;;;;;2614908;54;20412;-76
2023/10/13 02:56:50;;;;;;;13.77;9.77;;;;;;;;;;2614287;47;20467;-76
2023/10/13 02:59:33;;;;;;;24.83;11.93;;;;;;;;;;2614648;39;21200;-76
2023/10/13 03:02:00;;;;;;;17.13;10.90;;;;;;;;;;2613540;47;20522;-76
2023/10/13 03:04:26;;;;;;;14.10;10.47;;;;;;;;;;2615101;54;20442;-76
2023/10/13 03:06:53;;;;;;;17.03;10.57;;;;;;;;;;2613564;54;20456;-75
2023/10/13 03:09:21;;;;;;;12.80;11.00;;;;;;;;;;2614466;47;21001;-76
2023/10/13 03:11:50;;;;;;;15.23;11.00;;;;;;;;;;2614194;39;20814;-76
2023/10/13 03:14:31;;;;;;;13.43;10.90;;;;;;;;;;2613711;47;20954;-76
2023/10/13 03:17:08;;;;;;;14.67;10.90;;;;;;;;;;2614457;54;20978;-76
2023/10/13 03:19:36;;;;;;;18.17;11.67;;;;;;;;;;2614610;54;20411;-76
2023/10/13 03:22:16;;;;;;;16.93;10.37;;;;;;;;;;2614381;54;20423;-74
2023/10/13 03:24:46;;;;;;;19.93;11.00;;;;;;;;;;2613535;39;20995;-74
2023/10/13 03:27:16;;;;;;;11.87;9.80;;;;;;;;;;2613871;31;20902;-75
2023/10/13 03:29:43;;;;;;;13.80;10.70;;;;;;;;;;2612831;54;20467;-75
2023/10/13 03:32:14;;;;;;;11.97;10.33;;;;;;;;;;2612782;54;20427;-76
2023/10/13 03:34:49;;;;;;;18.73;11.30;;;;;;;;;;2612716;54;20404;-75
2023/10/13 03:37:23;;;;;;;13.40;10.63;;;;;;;;;;2611775;54;20466;-76
2023/10/13 03:39:53;;;;;;;15.07;10.90;;;;;;;;;;2613267;54;20463;-76
2023/10/13 03:42:21;;;;;;;16.33;10.30;;;;;;;;;;2613191;39;20808;-75
2023/10/13 03:44:47;;;;;;;17.70;11.93;;;;;;;;;;2611907;47;20431;-76
2023/10/13 03:47:26;;;;;;;15.10;12.20;;;;;;;;;;2612162;54;20411;-75
2023/10/13 03:50:14;;;;;;;16.90;12.53;;;;;;;;;;2612295;47;20555;-76
2023/10/13 03:52:40;;;;;;;14.17;12.70;;;;;;;;;;2612451;54;20490;-75
2023/10/13 03:55:07;;;;;;;15.50;11.60;;;;;;;;;;2612780;54;21008;-76
2023/10/13 03:57:34;;;;;;;21.20;11.70;;;;;;;;;;2612145;54;20467;-76
2023/10/13 04:00:08;;;;;;;15.10;13.50;;;;;;;;;;2612716;46;20450;-76
2023/10/13 04:02:36;;;;;;;21.70;11.97;;;;;;;;;;2612722;39;20811;-75
2023/10/13 04:05:09;;;;;;;30.83;13.13;;;;;;;;;;2613305;54;20418;-75
2023/10/13 04:16:01;;;;;;;21.33;13.27;;;;;;;;;;2613567;46;20446;-75
2023/10/13 04:18:50;;;;;;;18.50;14.03;;;;;;;;;;2613481;54;20434;-75
2023/10/13 04:21:39;;;;;;;17.07;14.27;;;;;;;;;;2613740;54;21248;-76
2023/10/13 04:24:24;;;;;;;16.90;12.87;;;;;;;;;;2613184;54;20427;-76
2023/10/13 04:32:15;;;;;;;17.70;13.43;;;;;;;;;;2613426;54;20419;-76
2023/10/13 04:34:45;;;;;;;15.37;13.00;;;;;;;;;;2612537;54;20567;-76
2023/10/13 04:37:33;;;;;;;16.30;12.73;;;;;;;;;;2613414;54;20426;-76
2023/10/13 04:40:09;;;;;;;15.03;11.67;;;;;;;;;;2613105;54;21361;-77
2023/10/13 04:42:53;;;;;;;20.20;12.03;;;;;;;;;;2613465;54;20507;-76
2023/10/13 04:48:27;;;;;;;19.07;12.60;;;;;;;;;;2613176;54;20427;-77
2023/10/13 04:50:47;;;;;;;17.83;11.77;;;;;;;;;;2612872;54;20427;-76
2023/10/13 05:45:23;;;;;;;17.80;10.90;;;;;;;;;;2613138;54;20957;-73
2023/10/13 06:28:43;;;;;;;14.43;8.40;;;;;;;;;;2610708;54;21023;-72
2023/10/13 06:31:22;;;;;;;18.40;9.20;;;;;;;;;;2610262;54;20419;-74
2023/10/13 06:33:48;;;;;;;12.17;7.77;;;;;;;;;;2611501;54;20427;-73
2023/10/13 06:36:14;;;;;;;14.73;8.60;;;;;;;;;;2610665;47;20423;-73
2023/10/13 06:38:41;;;;;;;13.40;7.40;;;;;;;;;;2609233;54;20384;-72
2023/10/13 06:41:08;;;;;;;17.10;8.90;;;;;;;;;;2608014;54;20439;-73
2023/10/13 06:43:42;;;;;;;14.90;8.73;;;;;;;;;;2611552;39;20765;-73
2023/10/13 06:46:14;;;;;;;16.57;6.90;;;;;;;;;;2612559;54;20399;-73
2023/10/13 06:48:41;;;;;;;13.70;7.80;;;;;;;;;;2612629;54;20503;-74
2023/10/13 06:51:22;;;;;;;15.10;9.00;;;;;;;;;;2609880;47;20412;-73
2023/10/13 06:53:51;;;;;;;14.03;8.80;;;;;;;;;;2611793;54;20424;-77
2023/10/13 06:56:27;;;;;;;15.93;9.50;;;;;;;;;;2612800;54;20412;-77
2023/10/13 06:58:59;;;;;;;16.57;8.77;;;;;;;;;;2612251;39;20508;-77
2023/10/13 07:01:25;;;;;;;11.80;9.20;;;;;;;;;;2611433;47;20438;-76
2023/10/13 07:04:00;;;;;;;16.53;9.43;;;;;;;;;;2612142;54;20494;-76
2023/10/13 07:06:27;;;;;;;13.27;8.57;;;;;;;;;;2611563;54;20399;-77
2023/10/13 07:08:53;;;;;;;13.50;9.20;;;;;;;;;;2610570;54;20942;-77
2023/10/13 07:11:33;;;;;;;14.23;8.87;;;;;;;;;;2611025;54;20383;-75
2023/10/13 07:14:09;;;;;;;10.57;7.73;;;;;;;;;;2611261;54;20404;-77
2023/10/13 07:16:37;;;;;;;11.83;9.20;;;;;;;;;;2611038;46;20438;-78
2023/10/13 07:19:05;;;;;;;16.20;10.40;;;;;;;;;;2612203;39;20796;-78
2023/10/13 07:21:33;;;;;;;13.47;9.70;;;;;;;;;;2611225;39;20884;-75
2023/10/13 07:24:08;;;;;;;18.30;10.40;;;;;;;;;;2610948;54;21008;-75
2023/10/13 07:26:35;;;;;;;15.10;10.20;;;;;;;;;;2609994;54;20437;-77
2023/10/13 07:29:01;;;;;;;20.03;10.33;;;;;;;;;;2609570;54;20475;-75
2023/10/13 07:31:27;;;;;;;14.93;8.70;;;;;;;;;;2607041;54;20502;-75
2023/10/13 07:34:04;;;;;;;19.40;9.53;;;;;;;;;;2610233;47;21061;-77
2023/10/13 07:36:39;;;;;;;21.17;9.60;;;;;;;;;;2611249;39;20812;-77
2023/10/13 07:39:20;;;;;;;12.57;8.43;;;;;;;;;;2610708;54;20476;-78
2023/10/13 07:41:51;;;;;;;13.40;9.60;;;;;;;;;;2610382;54;20403;-76
2023/10/13 07:44:19;;;;;;;17.30;9.87;;;;;;;;;;2611053;47;20476;-76
2023/10/13 07:46:57;;;;;;;16.73;9.53;;;;;;;;;;2610903;54;20415;-76
2023/10/13 07:49:24;;;;;;;13.83;8.53;;;;;;;;;;2611639;39;21210;-75
2023/10/13 07:51:57;;;;;;;15.13;8.27;;;;;;;;;;2612042;54;20432;-76
2023/10/13 07:54:23;;;;;;;12.33;9.00;;;;;;;;;;2611607;54;20403;-76
2023/10/13 07:56:50;;;;;;;13.03;9.90;;;;;;;;;;2611606;54;20454;-78
2023/10/13 07:59:16;;;;;;;16.73;8.43;;;;;;;;;;2611788;54;20527;-76
2023/10/13 08:01:42;;;;;;;11.20;7.03;;;;;;;;;;2609695;47;20450;-77
2023/10/13 08:04:12;;;;;;;10.47;7.30;;;;;;;;;;2610766;54;20954;-76
2023/10/13 08:06:40;;;;;;;24.40;9.00;;;;;;;;;;2610271;54;20406;-76
2023/10/13 08:12:05;;;;;;;12.37;7.73;;;;;;;;;;2609123;54;20388;-76
2023/10/13 08:14:33;;;;;;;12.77;6.37;;;;;;;;;;2609848;54;21074;-76
2023/10/13 08:17:00;;;;;;;10.30;6.67;;;;;;;;;;2609088;54;20444;-76
2023/10/13 08:19:27;;;;;;;13.47;6.50;;;;;;;;;;2610240;54;20457;-75
2023/10/13 08:22:23;;;;;;;14.70;6.73;;;;;;;;;;2609806;54;20418;-76
2023/10/13 08:30:25;;;;;;;15.00;7.33;;;;;;;;;;2609146;54;20461;-75
2023/10/13 08:32:54;;;;;;;11.87;6.30;;;;;;;;;;2608632;54;20464;-76
2023/10/13 08:35:33;;;;;;;8.83;5.70;;;;;;;;;;2608912;47;20434;-76
2023/10/13 08:38:04;;;;;;;9.83;5.73;;;;;;;;;;2609067;54;20510;-76
2023/10/13 08:43:16;;;;;;;16.00;6.63;;;;;;;;;;2608897;54;20402;-76
2023/10/13 08:48:14;;;;;;;11.17;6.77;;;;;;;;;;2609339;54;20407;-75
2023/10/13 08:53:31;;;;;;;10.90;6.17;;;;;;;;;;2612227;54;20433;-77
2023/10/13 09:09:35;;;;;;;11.67;6.70;;;;;;;;;;2611364;54;20399;-76
2023/10/13 09:12:11;;;;;;;10.27;6.60;;;;;;;;;;2610821;54;20475;-76
2023/10/13 09:14:42;;;;;;;8.23;5.17;;;;;;;;;;2611405;54;20419;-76
2023/10/13 09:19:56;;;;;;;10.40;6.70;;;;;;;;;;2611575;54;21063;-77
2023/10/13 09:22:35;;;;;;;11.60;6.83;;;;;;;;;;2611810;54;21002;-76
2023/10/13 09:25:05;;;;;;;13.50;6.33;;;;;;;;;;2612370;54;20686;-75
2023/10/13 09:27:37;;;;;;;14.23;6.43;;;;;;;;;;2612901;46;20421;-77
2023/10/13 09:30:18;;;;;;;19.90;7.40;;;;;;;;;;2612382;54;20405;-76
2023/10/13 09:32:48;;;;;;;12.83;7.07;;;;;;;;;;2612380;54;20424;-76
2023/10/13 09:35:22;;;;;;;10.60;5.90;;;;;;;;;;2612272;54;20431;-77
2023/10/13 09:37:50;;;;;;;8.60;6.33;;;;;;;;;;2613116;54;20424;-75
2023/10/13 09:40:26;;;;;;;12.90;7.27;;;;;;;;;;2612511;47;20420;-76
2023/10/13 09:42:55;;;;;;;12.30;5.87;;;;;;;;;;2611795;54;20590;-75
2023/10/13 09:45:40;;;;;;;6.10;5.50;;;;;;;;;;2612266;39;20839;-76
2023/10/13 09:48:16;;;;;;;12.63;7.43;;;;;;;;;;2611236;54;20550;-75
2023/10/13 09:50:48;;;;;;;11.93;7.07;;;;;;;;;;2612334;54;20882;-75
2023/10/13 09:53:17;;;;;;;9.07;6.80;;;;;;;;;;2611924;47;20960;-76
2023/10/13 09:56:14;;;;;;;11.40;8.13;;;;;;;;;;2611113;54;20395;-76
2023/10/13 09:58:53;;;;;;;19.60;6.63;;;;;;;;;;2611107;46;21007;-76
2023/10/13 10:01:31;;;;;;;11.70;8.10;;;;;;;;;;2609753;54;20431;-75
2023/10/13 10:04:29;;;;;;;8.47;7.53;;;;;;;;;;2609255;47;22010;-76
2023/10/13 10:06:56;;;;;;;12.17;8.43;;;;;;;;;;2610646;54;20412;-76
2023/10/13 10:09:36;;;;;;;17.50;9.20;;;;;;;;;;2609894;54;20419;-75
2023/10/13 10:12:18;;;;;;;10.40;8.30;;;;;;;;;;2611059;54;20649;-76
2023/10/13 10:14:59;;;;;;;12.20;8.20;;;;;;;;;;2611125;54;20472;-76
2023/10/13 10:17:29;;;;;;;14.53;8.50;;;;;;;;;;2610298;54;20509;-75
2023/10/13 10:19:56;;;;;;;14.90;10.13;;;;;;;;;;2610189;51;20434;-76
2023/10/13 10:22:49;;;;;;;9.27;8.20;;;;;;;;;;2610523;54;21012;-75
2023/10/13 10:25:28;;;;;;;12.83;8.40;;;;;;;;;;2609652;54;20424;-76
2023/10/13 10:27:57;;;;;;;9.80;8.83;;;;;;;;;;2609055;47;20431;-76
2023/10/13 10:30:27;;;;;;;13.47;10.73;;;;;;;;;;2609885;47;20493;-76
2023/10/13 10:32:59;;;;;;;9.97;8.97;;;;;;;;;;2609005;47;20458;-76
2023/10/13 10:35:29;;;;;;;12.47;9.40;;;;;;;;;;2609254;39;20841;-74
2023/10/13 10:38:32;;;;;;;18.90;8.97;;;;;;;;;;2609933;54;20438;-76
2023/10/13 10:41:04;;;;;;;16.67;9.10;;;;;;;;;;2609920;54;20427;-76
2023/10/13 10:43:45;;;;;;;9.43;8.07;;;;;;;;;;2609446;48;20555;-75
2023/10/13 10:46:18;;;;;;;17.43;9.30;;;;;;;;;;2609928;47;20399;-76
2023/10/13 10:48:47;;;;;;;13.53;9.97;;;;;;;;;;2611263;54;20416;-74
2023/10/13 10:51:21;;;;;;;12.77;9.00;;;;;;;;;;2610891;54;20451;-75
2023/10/13 10:53:49;;;;;;;16.20;8.77;;;;;;;;;;2610438;47;20416;-76
2023/10/13 10:56:25;;;;;;;23.30;10.03;;;;;;;;;;2610109;54;21132;-75
2023/10/13 10:58:57;;;;;;;12.70;9.97;;;;;;;;;;2610822;54;20538;-75
2023/10/13 11:01:24;;;;;;;23.30;11.30;;;;;;;;;;2610425;54;20427;-75
2023/10/13 11:03:57;;;;;;;14.83;9.87;;;;;;;;;;2611236;46;20462;-75
2023/10/13 11:06:25;;;;;;;16.33;10.50;;;;;;;;;;2610386;54;20430;-75
2023/10/13 11:09:03;;;;;;;12.60;10.73;;;;;;;;;;2611896;39;20837;-75
2023/10/13 11:11:36;;;;;;;12.80;10.70;;;;;;;;;;2611352;54;20493;-74
2023/10/13 11:14:17;;;;;;;15.97;11.30;;;;;;;;;;2607485;51;20422;-76
2023/10/13 11:16:50;;;;;;;10.27;9.20;;;;;;;;;;2611178;54;20418;-75
2023/10/13 11:19:20;;;;;;;15.23;11.70;;;;;;;;;;2610458;47;21228;-75
2023/10/13 11:21:47;;;;;;;12.97;10.67;;;;;;;;;;2609110;54;21103;-75
2023/10/13 11:24:14;;;;;;;15.17;9.73;;;;;;;;;;2610462;54;20450;-75
2023/10/13 11:26:49;;;;;;;23.50;11.33;;;;;;;;;;2610549;54;20411;-75
2023/10/13 11:29:31;;;;;;;11.90;9.83;;;;;;;;;;2611568;54;20465;-76
2023/10/13 11:32:00;;;;;;;15.30;10.50;;;;;;;;;;2609818;54;20524;-74
2023/10/13 11:34:36;;;;;;;16.23;9.90;;;;;;;;;;2608773;54;20400;-75
2023/10/13 11:37:28;;;;;;;15.47;11.53;;;;;;;;;;2608801;51;20423;-75
2023/10/13 11:39:51;;;;;;;16.90;10.97;;;;;;;;;;2611012;54;20419;-76
2023/10/13 11:42:18;;;;;;;13.40;11.07;;;;;;;;;;2610934;54;20400;-76
2023/10/13 11:44:44;;;;;;;11.60;10.40;;;;;;;;;;2610912;54;20396;-75
2023/10/13 11:47:47;;;;;;;15.23;10.63;;;;;;;;;;2609659;54;20430;-74
2023/10/13 11:50:05;;;;;;;12.00;10.80;;;;;;;;;;2611425;54;20446;-74
2023/10/13 11:52:31;;;;;;;17.13;11.17;;;;;;;;;;2611926;39;20810;-76
2023/10/13 11:54:57;;;;;;;10.47;9.17;;;;;;;;;;2611758;54;20398;-74
2023/10/13 11:57:24;;;;;;;12.97;10.47;;;;;;;;;;2610741;54;20959;-77
2023/10/13 11:59:53;;;;;;;14.80;11.17;;;;;;;;;;2610137;54;20933;-75
2023/10/13 12:04:54;;;;;;;14.57;11.70;;;;;;;;;;2612002;46;20403;-74
2023/10/13 12:12:20;;;;;;;10.67;9.77;;;;;;;;;;2611030;54;20407;-76
2023/10/13 12:14:52;;;;;;;14.93;12.07;;;;;;;;;;2611196;54;21049;-75
2023/10/13 12:17:34;;;;;;;14.47;11.20;;;;;;;;;;2611393;39;20845;-75
2023/10/13 12:20:00;;;;;;;13.67;12.27;;;;;;;;;;2610826;47;20423;-75
2023/10/13 12:22:51;;;;;;;16.77;11.03;;;;;;;;;;2611042;47;20820;-74
2023/10/13 12:28:12;;;;;;;15.70;10.73;;;;;;;;;;2611251;54;20422;-74
2023/10/13 12:30:52;;;;;;;21.30;10.53;;;;;;;;;;2610421;54;20941;-76
2023/10/13 12:33:25;;;;;;;12.30;10.20;;;;;;;;;;2609802;47;20518;-75
2023/10/13 12:36:09;;;;;;;9.40;8.50;;;;;;;;;;2610928;46;20451;-75
2023/10/13 12:52:16;;;;;;;17.83;11.17;;;;;;;;;;2612241;54;20423;-74
2023/10/13 12:57:33;;;;;;;15.87;11.40;;;;;;;;;;2611673;54;20447;-75
2023/10/13 12:59:59;;;;;;;14.80;10.70;;;;;;;;;;2611385;54;20440;-75
2023/10/13 13:02:27;;;;;;;10.00;8.13;;;;;;;;;;2610430;54;20416;-74
2023/10/13 13:05:06;;;;;;;14.87;11.47;;;;;;;;;;2609974;54;20403;-74
2023/10/13 13:07:43;;;;;;;16.27;9.90;;;;;;;;;;2611150;47;20427;-75
2023/10/13 13:10:11;;;;;;;17.03;9.90;;;;;;;;;;2609515;47;20422;-75
2023/10/13 13:12:38;;;;;;;34.73;13.20;;;;;;;;;;2610934;46;20482;-74
2023/10/13 13:15:08;;;;;;;15.60;10.67;;;;;;;;;;2611989;54;21424;-74
2023/10/13 13:17:35;;;;;;;24.90;12.53;;;;;;;;;;2608980;51;20423;-75
2023/10/13 13:20:10;;;;;;;19.07;10.40;;;;;;;;;;2612285;54;20399;-75
2023/10/13 13:22:36;;;;;;;20.40;12.30;;;;;;;;;;2610418;46;20448;-74
2023/10/13 13:25:07;;;;;;;21.40;12.50;;;;;;;;;;2611550;54;20438;-74
2023/10/13 13:27:33;;;;;;;12.80;11.50;;;;;;;;;;2610594;54;20420;-75
2023/10/13 13:30:00;;;;;;;14.17;10.73;;;;;;;;;;2609589;47;20458;-75
2023/10/13 13:32:28;;;;;;;22.13;12.40;;;;;;;;;;2611590;54;20416;-74
2023/10/13 13:34:58;;;;;;;16.43;11.83;;;;;;;;;;2611371;47;20954;-74
2023/10/13 13:37:27;;;;;;;12.63;11.30;;;;;;;;;;2610905;54;21335;-74
2023/10/13 13:39:53;;;;;;;15.87;12.57;;;;;;;;;;2609446;54;21016;-75
2023/10/13 13:42:20;;;;;;;15.60;10.90;;;;;;;;;;2608680;54;20415;-74
2023/10/13 13:44:47;;;;;;;20.50;11.07;;;;;;;;;;2608741;54;21166;-74
2023/10/13 13:47:13;;;;;;;13.43;11.60;;;;;;;;;;2608409;46;20434;-75
2023/10/13 13:49:52;;;;;;;15.93;10.30;;;;;;;;;;2610262;54;20423;-73
2023/10/13 13:52:23;;;;;;;16.20;10.73;;;;;;;;;;2610331;54;20407;-75
2023/10/13 13:54:49;;;;;;;14.00;12.60;;;;;;;;;;2609995;54;21452;-75
2023/10/13 13:57:15;;;;;;;17.80;12.83;;;;;;;;;;2609318;54;20491;-75
2023/10/13 13:59:45;;;;;;;17.03;12.07;;;;;;;;;;2610319;54;20419;-76
2023/10/13 14:02:20;;;;;;;18.17;12.67;;;;;;;;;;2610861;54;20495;-75
2023/10/13 14:04:52;;;;;;;14.90;11.30;;;;;;;;;;2610909;54;20562;-75
2023/10/13 14:07:24;;;;;;;21.43;12.70;;;;;;;;;;2612064;54;20428;-75
2023/10/13 14:10:05;;;;;;;17.20;11.40;;;;;;;;;;2612557;31;20989;-74
2023/10/13 14:12:43;;;;;;;18.77;12.53;;;;;;;;;;2611856;39;20852;-75
2023/10/13 14:15:19;;;;;;;21.50;12.40;;;;;;;;;;2611130;54;20426;-76
2023/10/13 14:17:48;;;;;;;14.70;11.60;;;;;;;;;;2611811;39;20814;-75
2023/10/13 14:20:21;;;;;;;20.57;11.80;;;;;;;;;;2612409;54;20424;-74
2023/10/13 14:22:48;;;;;;;21.37;12.60;;;;;;;;;;2612284;54;20938;-75
2023/10/13 14:25:14;;;;;;;13.70;12.30;;;;;;;;;;2611917;54;20503;-75
2023/10/13 14:27:43;;;;;;;15.13;12.47;;;;;;;;;;2612297;54;20396;-75
2023/10/13 14:30:09;;;;;;;15.50;11.80;;;;;;;;;;2612124;54;20938;-75
2023/10/13 14:32:40;;;;;;;19.90;11.10;;;;;;;;;;2611802;54;20472;-75
2023/10/13 14:35:25;;;;;;;17.43;13.10;;;;;;;;;;2611724;54;20435;-76
2023/10/13 14:37:52;;;;;;;12.57;11.37;;;;;;;;;;2611318;54;20774;-75
2023/10/13 14:40:21;;;;;;;15.70;11.33;;;;;;;;;;2610102;47;21591;-75
2023/10/13 14:42:48;;;;;;;21.60;11.27;;;;;;;;;;2611970;54;20432;-75
2023/10/13 14:45:16;;;;;;;18.53;14.10;;;;;;;;;;2612111;54;20416;-75
2023/10/13 14:47:42;;;;;;;13.13;11.83;;;;;;;;;;2611900;54;20466;-75
2023/10/13 14:50:19;;;;;;;25.20;12.80;;;;;;;;;;2613030;39;20814;-75
2023/10/13 14:52:45;;;;;;;24.93;12.57;;;;;;;;;;2611204;47;20552;-76
2023/10/13 14:55:18;;;;;;;13.63;11.37;;;;;;;;;;2611230;54;20412;-75
2023/10/13 14:57:45;;;;;;;30.93;13.83;;;;;;;;;;2611209;54;20452;-75
2023/10/13 15:00:14;;;;;;;19.13;10.80;;;;;;;;;;2610986;54;20441;-75
2023/10/13 15:02:43;;;;;;;16.20;11.60;;;;;;;;;;2609694;54;20431;-75
2023/10/13 15:05:16;;;;;;;13.73;12.30;;;;;;;;;;2612626;54;20519;-75
2023/10/13 15:07:49;;;;;;;18.33;12.60;;;;;;;;;;2613542;54;20400;-74
2023/10/13 15:10:16;;;;;;;16.10;11.73;;;;;;;;;;2613693;39;20847;-74
2023/10/13 15:12:44;;;;;;;12.10;9.97;;;;;;;;;;2613462;54;20511;-74
2023/10/13 15:15:13;;;;;;;16.47;11.70;;;;;;;;;;2611805;54;20415;-72
2023/10/13 15:17:40;;;;;;;13.03;11.63;;;;;;;;;;2611284;54;20423;-74
2023/10/13 15:20:15;;;;;;;19.43;11.60;;;;;;;;;;2612226;54;20422;-73
2023/10/13 15:22:43;;;;;;;12.77;11.13;;;;;;;;;;2611220;47;20514;-73
2023/10/13 15:25:20;;;;;;;13.83;12.43;;;;;;;;;;2612074;54;20443;-72
2023/10/13 15:27:55;;;;;;;15.13;10.87;;;;;;;;;;2611318;54;20418;-73
2023/10/13 15:30:30;;;;;;;20.00;12.30;;;;;;;;;;2610536;47;20419;-75
2023/10/13 15:32:57;;;;;;;24.30;10.73;;;;;;;;;;2610056;54;20412;-73
2023/10/13 15:35:28;;;;;;;16.17;11.43;;;;;;;;;;2608932;51;20977;-73
2023/10/13 15:37:55;;;;;;;13.20;10.10;;;;;;;;;;2609892;54;20418;-75
2023/10/13 15:40:21;;;;;;;14.40;11.30;;;;;;;;;;2609510;47;20415;-73
2023/10/13 15:42:47;;;;;;;16.80;11.70;;;;;;;;;;2611510;46;20546;-73
2023/10/13 15:45:17;;;;;;;16.37;10.93;;;;;;;;;;2609920;39;20455;-74
2023/10/13 15:47:45;;;;;;;20.90;11.80;;;;;;;;;;2610266;54;20431;-73
2023/10/13 15:50:15;;;;;;;16.00;11.70;;;;;;;;;;2610385;54;20503;-74
2023/10/13 15:52:48;;;;;;;16.07;12.70;;;;;;;;;;2609712;46;20418;-71
2023/10/13 15:55:15;;;;;;;13.93;11.20;;;;;;;;;;2611112;54;20388;-74
2023/10/13 15:57:41;;;;;;;15.50;12.30;;;;;;;;;;2611984;39;20851;-71
2023/10/13 16:00:25;;;;;;;17.33;13.90;;;;;;;;;;2610974;54;20407;-71
2023/10/13 16:02:52;;;;;;;17.37;12.00;;;;;;;;;;2611270;54;20394;-73
2023/10/13 16:05:25;;;;;;;12.10;10.80;;;;;;;;;;2612043;54;20419;-72
2023/10/13 16:07:52;;;;;;;17.30;11.40;;;;;;;;;;2611955;54;20422;-73
2023/10/13 16:10:22;;;;;;;19.17;11.67;;;;;;;;;;2611247;54;20430;-74
2023/10/13 16:12:48;;;;;;;19.03;14.67;;;;;;;;;;2610915;54;20391;-73
2023/10/13 16:15:14;;;;;;;17.73;13.10;;;;;;;;;;2611394;54;20403;-74
2023/10/13 16:17:41;;;;;;;12.40;11.03;;;;;;;;;;2607961;54;20535;-74
2023/10/13 16:20:20;;;;;;;15.03;12.40;;;;;;;;;;2607635;48;20407;-74
2023/10/13 16:22:47;;;;;;;21.40;13.07;;;;;;;;;;2608183;39;20912;-74
2023/10/13 16:25:13;;;;;;;13.87;12.20;;;;;;;;;;2608165;54;20491;-78
2023/10/13 16:27:42;;;;;;;18.27;11.67;;;;;;;;;;2607193;54;20434;-76
2023/10/13 16:30:10;;;;;;;18.60;10.97;;;;;;;;;;2609022;54;20462;-78
2023/10/13 16:32:36;;;;;;;14.80;12.13;;;;;;;;;;2607688;54;20408;-76
2023/10/13 16:35:06;;;;;;;13.73;12.23;;;;;;;;;;2608019;54;20532;-78
2023/10/13 16:37:33;;;;;;;20.43;12.00;;;;;;;;;;2608118;54;20523;-77
2023/10/13 16:40:04;;;;;;;13.83;11.57;;;;;;;;;;2608525;54;20411;-76
2023/10/13 16:42:34;;;;;;;13.80;11.20;;;;;;;;;;2610147;54;20400;-76
2023/10/13 16:48:02;;;;;;;15.83;12.20;;;;;;;;;;2609602;54;21063;-76
2023/10/13 16:50:29;;;;;;;15.23;12.80;;;;;;;;;;2609982;54;20420;-76
2023/10/13 16:52:56;;;;;;;17.17;11.30;;;;;;;;;;2609980;54;20396;-76
2023/10/13 16:55:25;;;;;;;13.10;9.20;;;;;;;;;;2609879;54;20982;-76
2023/10/13 16:57:51;;;;;;;15.70;10.10;;;;;;;;;;2609849;54;20466;-76
2023/10/13 17:00:18;;;;;;;15.10;12.27;;;;;;;;;;2609432;54;22561;-76
2023/10/13 17:02:45;;;;;;;22.23;10.03;;;;;;;;;;2609216;54;20420;-76
2023/10/13 17:05:13;;;;;;;14.10;10.60;;;;;;;;;;2609662;54;20408;-75
2023/10/13 17:07:39;;;;;;;14.50;9.67;;;;;;;;;;2610172;47;20423;-75
2023/10/13 17:10:05;;;;;;;15.00;11.00;;;;;;;;;;2610257;39;20882;-75
2023/10/13 17:12:33;;;;;;;13.70;9.97;;;;;;;;;;2610695;39;20833;-76
2023/10/13 17:15:13;;;;;;;15.43;9.20;;;;;;;;;;2610624;54;20395;-75
2023/10/13 17:17:40;;;;;;;16.63;9.90;;;;;;;;;;2610383;54;20411;-76
2023/10/13 17:20:09;;;;;;;17.80;8.33;;;;;;;;;;2610508;54;20531;-76
2023/10/13 17:22:36;;;;;;;19.13;10.60;;;;;;;;;;2610874;46;20438;-76
2023/10/13 17:25:03;;;;;;;11.27;10.07;;;;;;;;;;2611791;54;20507;-74
2023/10/13 17:27:33;;;;;;;15.23;9.83;;;;;;;;;;2611430;54;20421;-74
2023/10/13 17:29:59;;;;;;;15.63;11.23;;;;;;;;;;2612032;54;20427;-73
2023/10/13 17:32:25;;;;;;;13.23;9.50;;;;;;;;;;2611522;39;20936;-74
2023/10/13 17:34:51;;;;;;;11.13;10.03;;;;;;;;;;2610747;54;20419;-74
2023/10/13 17:37:17;;;;;;;14.70;8.87;;;;;;;;;;2610656;54;20424;-74
2023/10/13 17:39:44;;;;;;;14.27;10.03;;;;;;;;;;2611910;54;20392;-74